Time;durP1;ratioP1;P1;durP2;ratioP2;P2;SDS_P1;SDS_P2;PMS_P1;PMS_P2;Temp;Humidity;BMP_temperature;BMP_pressure;BME280_temperature;BME280_humidity;BME280_pressure;Samples;Min_cycle;Max_cycle;Signal;HPM_P1;HPM_P2
2022/05/30 00:01:21;;;;;;;2.05;0.90;;;7.00;99.90;;;-146.41;100.00;57768.22;5004236;28;20532;-71
2022/05/30 00:03:48;;;;;;;2.47;1.25;;;6.90;99.90;;;-146.41;100.00;57768.22;4988722;28;20054;-71
2022/05/30 00:06:21;;;;;;;2.17;1.13;;;6.90;99.90;;;-146.41;100.00;57768.22;4991271;28;20124;-70
2022/05/30 00:08:49;;;;;;;3.60;1.15;;;6.90;99.90;;;-146.41;100.00;57768.22;4986429;28;20075;-70
2022/05/30 00:11:17;;;;;;;2.67;1.10;;;6.90;99.90;;;-146.41;100.00;57768.22;5001714;28;20054;-71
2022/05/30 00:13:45;;;;;;;6.20;1.23;;;6.90;99.90;;;-146.41;100.00;57768.22;4990093;28;20104;-70
2022/05/30 00:16:17;;;;;;;2.15;1.10;;;7.00;99.90;;;-146.41;100.00;57768.22;4985510;28;20160;-71
2022/05/30 00:18:45;;;;;;;2.63;1.15;;;7.00;99.90;;;-146.41;100.00;57768.22;5001830;28;20061;-70
2022/05/30 00:21:12;;;;;;;1.83;1.10;;;7.00;99.90;;;-146.41;100.00;57768.22;5007853;28;20133;-71
2022/05/30 00:23:40;;;;;;;1.88;1.20;;;7.00;99.90;;;-146.41;100.00;57768.22;5004814;28;20046;-71
2022/05/30 00:26:08;;;;;;;2.40;1.00;;;7.00;99.90;;;-146.41;100.00;57768.22;5004288;28;20042;-71
2022/05/30 00:28:36;;;;;;;3.42;0.88;;;7.00;99.90;;;-146.41;100.00;57768.22;5002626;28;20135;-71
2022/05/30 00:31:11;;;;;;;1.73;1.05;;;7.00;99.90;;;-146.41;100.00;57768.22;4982252;28;20064;-70
2022/05/30 00:33:40;;;;;;;4.68;1.40;;;6.90;99.90;;;-146.41;100.00;57768.22;4970331;28;20132;-70
2022/05/30 00:36:07;;;;;;;3.45;1.27;;;6.80;99.90;;;-146.41;100.00;57768.22;5003557;28;20130;-71
2022/05/30 00:38:34;;;;;;;2.00;1.00;;;6.80;99.90;;;-146.41;100.00;57768.22;5001175;28;20128;-71
2022/05/30 00:41:02;;;;;;;4.15;1.63;;;6.80;99.90;;;-146.41;100.00;57768.22;5005667;28;20069;-70
2022/05/30 00:43:34;;;;;;;1.92;0.90;;;6.80;99.90;;;-146.41;100.00;57768.22;4982172;28;20128;-70
2022/05/30 00:46:11;;;;;;;3.42;1.20;;;6.80;99.90;;;-146.41;100.00;57768.22;4988855;28;20412;-70
2022/05/30 00:48:44;;;;;;;4.13;1.55;;;6.80;99.90;;;-146.41;100.00;57768.22;5002288;28;20061;-70
2022/05/30 00:51:17;;;;;;;2.90;1.10;;;6.80;99.90;;;-146.41;100.00;57768.22;4986953;28;20054;-71
2022/05/30 00:53:47;;;;;;;1.83;1.10;;;6.80;99.90;;;-146.41;100.00;57768.22;5003470;28;20137;-70
2022/05/30 00:56:15;;;;;;;3.75;1.50;;;6.80;99.90;;;-146.41;100.00;57768.22;4985132;28;20118;-71
2022/05/30 00:58:50;;;;;;;5.20;1.15;;;6.70;99.90;;;-146.41;100.00;57768.22;4997517;28;20046;-70
2022/05/30 01:01:20;;;;;;;1.85;1.27;;;6.70;99.90;;;-146.41;100.00;57768.22;4985969;28;20544;-70
2022/05/30 01:06:47;;;;;;;1.70;1.08;;;6.50;99.90;;;-146.41;100.00;57768.22;4991986;28;20081;-70
2022/05/30 01:09:21;;;;;;;2.10;1.10;;;6.60;99.90;;;-146.41;100.00;57768.22;4985727;28;20104;-70
2022/05/30 01:11:58;;;;;;;3.05;1.30;;;6.60;99.90;;;-146.41;100.00;57768.22;5004327;28;20051;-70
2022/05/30 01:14:30;;;;;;;3.83;1.25;;;6.50;99.90;;;-146.41;100.00;57768.22;5005489;28;20045;-71
2022/05/30 01:16:59;;;;;;;1.92;1.10;;;6.50;99.90;;;-146.41;100.00;57768.22;5003964;28;20453;-72
2022/05/30 01:20:00;;;;;;;1.88;1.10;;;6.40;99.90;;;-146.41;100.00;57768.22;5001965;28;20142;-72
2022/05/30 01:22:59;;;;;;;2.75;1.33;;;6.40;99.90;;;-146.41;100.00;57768.22;4991986;28;20081;-71
2022/05/30 01:25:48;;;;;;;2.75;1.15;;;6.30;99.90;;;-146.41;100.00;57768.22;5004056;28;20073;-71
2022/05/30 01:28:40;;;;;;;3.50;1.30;;;6.30;99.90;;;-146.41;100.00;57768.22;4985446;28;20476;-72
2022/05/30 01:31:07;;;;;;;1.73;1.20;;;6.30;99.90;;;-146.41;100.00;57768.22;4985926;28;20049;-72
2022/05/30 01:33:35;;;;;;;2.55;1.30;;;6.30;99.90;;;-146.41;100.00;57768.22;4982783;28;20145;-71
2022/05/30 01:36:02;;;;;;;2.38;1.20;;;6.30;99.90;;;-146.41;100.00;57768.22;4984647;28;20081;-71
2022/05/30 01:38:29;;;;;;;2.55;1.30;;;6.20;99.90;;;-146.41;100.00;57768.22;5002718;28;20128;-72
2022/05/30 01:40:56;;;;;;;2.63;1.20;;;6.20;99.90;;;-146.41;100.00;57768.22;5006186;28;20085;-71
2022/05/30 01:43:23;;;;;;;3.10;1.40;;;6.20;99.90;;;-146.41;100.00;57768.22;5004656;28;20077;-71
2022/05/30 01:45:50;;;;;;;4.38;1.55;;;6.20;99.90;;;-146.41;100.00;57768.22;5007140;28;20128;-71
2022/05/30 01:48:17;;;;;;;4.10;1.40;;;6.20;99.90;;;-146.41;100.00;57768.22;5001521;28;20149;-72
2022/05/30 01:50:45;;;;;;;3.58;1.75;;;6.20;99.90;;;-146.41;100.00;57768.22;5006419;28;20120;-72
2022/05/30 01:53:13;;;;;;;2.85;1.30;;;6.20;99.90;;;-146.41;100.00;57768.22;5003460;28;20054;-71
2022/05/30 01:55:42;;;;;;;7.35;2.00;;;6.20;99.90;;;-146.41;100.00;57768.22;4991300;28;20049;-70
2022/05/30 01:58:09;;;;;;;4.93;1.80;;;6.20;99.90;;;-146.41;100.00;57768.22;5005872;28;20237;-70
2022/05/30 02:00:36;;;;;;;3.70;1.48;;;6.10;99.90;;;-146.41;100.00;57768.22;5005723;28;20133;-70
2022/05/30 02:03:04;;;;;;;3.13;1.42;;;6.10;99.90;;;-146.41;100.00;57768.22;5004900;28;20100;-70
2022/05/30 02:05:33;;;;;;;3.92;2.03;;;6.10;99.90;;;-146.41;100.00;57768.22;5005748;28;20124;-70
2022/05/30 02:08:01;;;;;;;3.53;1.73;;;6.00;99.90;;;-146.41;100.00;57768.22;4987750;28;20046;-70
2022/05/30 02:10:30;;;;;;;4.50;1.58;;;6.00;99.90;;;-146.41;100.00;57768.22;4999484;28;20111;-70
2022/05/30 02:12:57;;;;;;;2.70;1.40;;;5.90;99.90;;;-146.41;100.00;57768.22;4987925;28;20046;-71
2022/05/30 02:15:25;;;;;;;4.88;1.95;;;6.00;99.90;;;-146.41;100.00;57768.22;5003043;28;20085;-69
2022/05/30 02:17:52;;;;;;;3.20;1.60;;;5.90;99.90;;;-146.41;100.00;57768.22;5002946;28;20864;-70
2022/05/30 02:20:20;;;;;;;4.88;1.88;;;5.90;99.90;;;-146.41;100.00;57768.22;5005002;28;20077;-71
2022/05/30 02:22:46;;;;;;;3.88;1.63;;;5.90;99.90;;;-146.41;100.00;57768.22;5006412;28;20073;-72
2022/05/30 02:25:14;;;;;;;2.95;1.38;;;5.90;99.90;;;-146.41;100.00;57768.22;5007344;28;20057;-69
2022/05/30 02:27:41;;;;;;;5.57;2.28;;;5.90;99.90;;;-146.41;100.00;57768.22;5001635;28;20095;-71
2022/05/30 02:30:10;;;;;;;5.85;2.00;;;5.90;99.90;;;-146.41;100.00;57768.22;5006206;28;20058;-71
2022/05/30 02:32:36;;;;;;;5.78;1.77;;;5.80;99.90;;;-146.41;100.00;57768.22;4997047;28;20090;-71
2022/05/30 02:37:50;;;;;;;4.53;2.65;;;5.80;99.90;;;-146.41;100.00;57768.22;5011716;28;20077;-71
2022/05/30 02:40:17;;;;;;;5.50;2.28;;;5.80;99.90;;;-146.41;100.00;57768.22;5009509;28;20108;-71
2022/05/30 02:42:44;;;;;;;4.25;2.20;;;5.80;99.90;;;-146.41;100.00;57768.22;5011585;28;20140;-71
2022/05/30 02:45:11;;;;;;;4.32;1.92;;;5.80;99.90;;;-146.41;100.00;57768.22;5000700;28;20073;-71
2022/05/30 02:47:38;;;;;;;3.92;2.00;;;5.80;99.90;;;-146.41;100.00;57768.22;5010267;28;20057;-71
2022/05/30 02:50:06;;;;;;;5.05;2.42;;;5.80;99.90;;;-146.41;100.00;57768.22;5004753;28;20164;-71
2022/05/30 02:52:33;;;;;;;6.50;2.65;;;5.80;99.90;;;-146.41;100.00;57768.22;5005451;28;20088;-71
2022/05/30 02:55:00;;;;;;;4.65;2.50;;;5.80;99.90;;;-146.41;100.00;57768.22;5004447;28;20133;-70
2022/05/30 02:57:27;;;;;;;5.25;3.05;;;5.80;99.90;;;-146.41;100.00;57768.22;5006107;28;20128;-71
2022/05/30 02:59:54;;;;;;;3.97;3.08;;;5.80;99.90;;;-146.41;100.00;57768.22;5011500;28;20128;-71
2022/05/30 03:02:21;;;;;;;5.57;3.03;;;5.80;99.90;;;-146.41;100.00;57768.22;5006612;28;20072;-71
2022/05/30 03:04:48;;;;;;;7.13;2.88;;;5.80;99.90;;;-146.41;100.00;57768.22;4992512;28;20227;-71
2022/05/30 03:07:15;;;;;;;5.90;3.78;;;5.80;99.90;;;-146.41;100.00;57768.22;5005769;28;20085;-71
2022/05/30 03:09:44;;;;;;;5.63;2.95;;;5.90;99.90;;;-146.41;100.00;57768.22;5010419;28;20081;-71
2022/05/30 03:12:11;;;;;;;5.70;3.08;;;5.90;99.90;;;-146.41;100.00;57768.22;5010467;28;20073;-71
2022/05/30 03:14:38;;;;;;;6.53;3.67;;;5.80;99.90;;;-146.41;100.00;57768.22;5015763;28;20077;-70
2022/05/30 03:17:05;;;;;;;4.70;3.20;;;5.70;99.90;;;-146.41;100.00;57768.22;4991305;28;20180;-71
2022/05/30 03:19:32;;;;;;;6.72;3.45;;;5.70;99.90;;;-146.41;100.00;57768.22;5012955;28;20052;-71
2022/05/30 03:21:59;;;;;;;6.60;3.65;;;5.60;99.90;;;-146.41;100.00;57768.22;5004227;28;20931;-70
2022/05/30 03:24:26;;;;;;;7.82;4.88;;;5.70;99.90;;;-146.41;100.00;57768.22;5004583;28;20242;-71
2022/05/30 03:26:53;;;;;;;7.30;4.47;;;5.70;99.90;;;-146.41;100.00;57768.22;5005696;28;20131;-71
2022/05/30 03:29:20;;;;;;;9.95;4.88;;;5.80;99.90;;;-146.41;100.00;57768.22;5007979;28;20573;-71
2022/05/30 03:31:47;;;;;;;7.28;4.10;;;5.80;99.90;;;-146.41;100.00;57768.22;5009696;28;20083;-71
2022/05/30 03:34:14;;;;;;;7.75;4.60;;;5.70;99.90;;;-146.41;100.00;57768.22;5007276;28;20132;-71
2022/05/30 03:36:41;;;;;;;7.15;4.35;;;5.70;99.90;;;-146.41;100.00;57768.22;5007204;28;20147;-71
2022/05/30 03:39:09;;;;;;;9.00;4.47;;;5.70;99.90;;;-146.41;100.00;57768.22;5006620;28;20587;-71
2022/05/30 03:41:35;;;;;;;7.95;4.38;;;5.70;99.90;;;-146.41;100.00;57768.22;4988653;28;20463;-71
2022/05/30 03:44:02;;;;;;;6.43;4.53;;;5.70;99.90;;;-146.41;100.00;57768.22;5010876;28;20161;-71
2022/05/30 03:46:31;;;;;;;5.38;3.88;;;5.70;99.90;;;-146.41;100.00;57768.22;5003424;28;20089;-71
2022/05/30 03:48:59;;;;;;;9.63;5.18;;;5.70;99.90;;;-146.41;100.00;57768.22;5006109;28;20531;-71
2022/05/30 03:51:26;;;;;;;5.80;4.10;;;5.70;99.90;;;-146.41;100.00;57768.22;5005213;28;20581;-70
2022/05/30 03:53:53;;;;;;;7.90;4.63;;;5.70;99.90;;;-146.41;100.00;57768.22;5006705;28;20768;-71
2022/05/30 03:56:20;;;;;;;7.90;4.47;;;5.70;99.90;;;-146.41;100.00;57768.22;5003579;28;20129;-71
2022/05/30 03:58:48;;;;;;;7.07;4.57;;;5.70;99.90;;;-146.41;100.00;57768.22;5006536;28;20138;-71
2022/05/30 04:01:16;;;;;;;7.47;4.20;;;5.70;99.90;;;-146.41;100.00;57768.22;5005633;28;20469;-71
2022/05/30 04:03:43;;;;;;;7.70;5.20;;;5.70;99.90;;;-146.41;100.00;57768.22;5007270;28;20053;-71
2022/05/30 04:06:10;;;;;;;7.43;5.50;;;5.60;99.90;;;-146.41;100.00;57768.22;5006525;28;20093;-72
2022/05/30 04:08:38;;;;;;;7.78;5.20;;;5.60;99.90;;;-146.41;100.00;57768.22;5005252;28;20081;-70
2022/05/30 04:11:04;;;;;;;9.85;5.82;;;5.60;99.90;;;-146.41;100.00;57768.22;5008775;28;20199;-71
2022/05/30 04:13:32;;;;;;;7.30;4.45;;;5.60;99.90;;;-146.41;100.00;57768.22;5009120;28;20137;-71
2022/05/30 04:16:07;;;;;;;7.15;3.65;;;5.60;99.90;;;-146.41;100.00;57768.22;5009008;28;20136;-71
2022/05/30 04:18:34;;;;;;;7.00;4.10;;;5.60;99.90;;;-146.41;100.00;57768.22;5004237;28;20050;-71
2022/05/30 04:21:01;;;;;;;6.70;3.85;;;5.50;99.90;;;-146.41;100.00;57768.22;5004486;28;20045;-70
2022/05/30 04:23:28;;;;;;;5.60;3.92;;;5.50;99.90;;;-146.41;100.00;57768.22;5008410;28;20118;-71
2022/05/30 04:25:55;;;;;;;7.90;4.70;;;5.70;99.90;;;-146.41;100.00;57768.22;4967435;28;1131228;-71
2022/05/30 04:28:22;;;;;;;8.32;4.40;;;5.80;99.90;;;-146.41;100.00;57768.22;5002914;28;20058;-71
2022/05/30 04:30:49;;;;;;;4.78;3.70;;;5.90;99.90;;;-146.41;100.00;57768.22;5007450;28;20149;-71
2022/05/30 04:33:16;;;;;;;7.22;4.65;;;6.00;99.90;;;-146.41;100.00;57768.22;5005815;28;20054;-71
2022/05/30 04:35:43;;;;;;;6.53;4.20;;;6.20;99.90;;;-146.41;100.00;57768.22;5005690;28;20055;-71
2022/05/30 04:38:10;;;;;;;7.72;4.85;;;6.30;99.90;;;-146.41;100.00;57768.22;5008278;28;20077;-71
2022/05/30 04:40:37;;;;;;;8.35;5.03;;;6.40;99.90;;;-146.41;100.00;57768.22;5009098;28;20081;-71
2022/05/30 04:43:04;;;;;;;8.38;4.45;;;6.50;99.90;;;-146.41;100.00;57768.22;5009445;28;20042;-70
2022/05/30 04:45:31;;;;;;;8.57;5.63;;;6.60;99.90;;;-146.41;100.00;57768.22;5007250;28;20455;-71
2022/05/30 04:48:00;;;;;;;7.43;5.00;;;6.60;99.90;;;-146.41;100.00;57768.22;5007341;28;20081;-71
2022/05/30 04:50:27;;;;;;;9.25;5.40;;;6.60;99.90;;;-146.41;100.00;57768.22;5013738;28;20162;-71
2022/05/30 04:52:54;;;;;;;9.63;6.35;;;6.60;99.90;;;-146.41;100.00;57768.22;5009816;28;20193;-70
2022/05/30 04:55:21;;;;;;;7.88;5.70;;;6.70;99.90;;;-146.41;100.00;57768.22;5006015;28;20148;-70
2022/05/30 04:57:50;;;;;;;6.85;4.47;;;6.70;99.90;;;-146.41;100.00;57768.22;4993736;28;20042;-70
2022/05/30 05:00:24;;;;;;;5.47;3.63;;;6.90;99.90;;;-146.41;100.00;57768.22;5002822;28;20046;-70
2022/05/30 05:02:54;;;;;;;6.55;4.47;;;7.10;99.90;;;-146.41;100.00;57768.22;5000688;28;20366;-71
2022/05/30 05:05:21;;;;;;;5.78;4.20;;;7.20;99.90;;;-146.41;100.00;57768.22;5009208;28;20044;-70
2022/05/30 05:08:00;;;;;;;7.90;4.43;;;7.40;99.90;;;-146.41;100.00;57768.22;5007397;28;20084;-71
2022/05/30 05:10:33;;;;;;;8.00;5.40;;;7.50;99.90;;;-146.41;100.00;57768.22;4996716;28;20128;-70
2022/05/30 05:13:00;;;;;;;8.32;5.80;;;7.70;99.90;;;-146.41;100.00;57768.22;5006356;28;20055;-70
2022/05/30 05:15:27;;;;;;;9.05;6.45;;;7.80;99.90;;;-146.41;100.00;57768.22;5008927;28;20077;-71
2022/05/30 05:17:55;;;;;;;9.57;7.13;;;7.80;99.90;;;-146.41;100.00;57768.22;4993985;28;20144;-71
2022/05/30 05:20:23;;;;;;;9.55;7.03;;;8.00;99.90;;;-146.41;100.00;57768.22;5002779;28;20488;-71
2022/05/30 05:22:51;;;;;;;10.35;6.28;;;8.20;99.90;;;-146.41;100.00;57768.22;5008475;28;20048;-71
2022/05/30 05:25:19;;;;;;;9.38;6.65;;;8.30;99.90;;;-146.41;100.00;57768.22;4992792;28;20493;-70
2022/05/30 05:27:49;;;;;;;10.82;6.38;;;8.50;99.90;;;-146.41;100.00;57768.22;5005957;28;20420;-70
2022/05/30 05:30:16;;;;;;;8.85;6.22;;;8.70;99.90;;;-146.41;100.00;57768.22;5009657;28;20481;-71
2022/05/30 05:32:43;;;;;;;9.18;6.30;;;8.80;99.90;;;-146.41;100.00;57768.22;5009197;28;20058;-70
2022/05/30 05:35:10;;;;;;;8.45;6.10;;;8.90;99.90;;;-146.41;100.00;57768.22;5010889;28;20428;-70
2022/05/30 05:37:38;;;;;;;7.65;6.18;;;9.00;99.90;;;-146.41;100.00;57768.22;5013520;28;20077;-70
2022/05/30 05:40:06;;;;;;;6.82;5.72;;;9.00;99.90;;;-146.41;100.00;57768.22;5006342;28;21550;-70
2022/05/30 05:42:33;;;;;;;9.40;6.32;;;9.20;99.90;;;-146.41;100.00;57768.22;5010493;28;20137;-72
2022/05/30 05:45:00;;;;;;;10.82;5.90;;;9.20;99.90;;;-146.41;100.00;57768.22;5009652;28;20211;-71
2022/05/30 05:47:26;;;;;;;9.65;6.03;;;9.40;99.90;;;-146.41;100.00;57768.22;5003215;28;20077;-71
2022/05/30 05:49:57;;;;;;;8.07;5.13;;;9.50;99.90;;;-146.41;100.00;57768.22;5005280;28;20049;-71
2022/05/30 05:52:28;;;;;;;7.85;5.25;;;9.60;99.90;;;-146.41;100.00;57768.22;4991929;28;20128;-71
2022/05/30 05:54:56;;;;;;;8.35;5.30;;;9.60;99.90;;;-146.41;100.00;57768.22;5012366;28;20512;-72
2022/05/30 05:57:27;;;;;;;8.30;4.60;;;9.70;99.90;;;-146.41;100.00;57768.22;5006607;28;20141;-72
2022/05/30 05:59:54;;;;;;;6.15;4.80;;;9.70;99.90;;;-146.41;100.00;57768.22;5011872;28;20148;-72
2022/05/30 06:02:22;;;;;;;8.40;4.80;;;9.80;99.90;;;-146.41;100.00;57768.22;5003118;28;20434;-71
2022/05/30 06:04:53;;;;;;;9.32;4.63;;;10.00;99.90;;;-146.41;100.00;57768.22;4989579;28;20518;-72
2022/05/30 06:07:20;;;;;;;8.23;4.57;;;10.10;99.90;;;-146.41;100.00;57768.22;5008021;28;20204;-72
2022/05/30 06:09:47;;;;;;;8.75;4.50;;;10.20;99.90;;;-146.41;100.00;57768.22;5011729;28;20189;-72
2022/05/30 06:12:15;;;;;;;8.10;5.15;;;10.30;99.90;;;-146.41;100.00;57768.22;5007592;28;20071;-71
2022/05/30 06:14:42;;;;;;;7.47;3.42;;;10.30;99.90;;;-146.41;100.00;57768.22;5009110;28;20057;-72
2022/05/30 06:17:09;;;;;;;6.88;3.78;;;10.50;99.90;;;-146.41;100.00;57768.22;5004275;28;20140;-71
2022/05/30 06:19:36;;;;;;;6.80;4.03;;;10.60;99.90;;;-146.41;100.00;57768.22;5004635;28;20070;-72
2022/05/30 06:22:03;;;;;;;7.88;4.75;;;10.80;99.90;;;-146.41;100.00;57768.22;5003634;28;21667;-72
2022/05/30 06:24:30;;;;;;;7.22;4.38;;;10.80;99.90;;;-146.41;100.00;57768.22;5004250;28;20723;-71
2022/05/30 06:26:57;;;;;;;7.70;3.72;;;10.90;99.90;;;-146.41;100.00;57768.22;5004988;28;20104;-71
2022/05/30 06:29:24;;;;;;;6.47;4.10;;;10.90;99.90;;;-146.41;100.00;57768.22;5009543;28;20527;-72
2022/05/30 06:31:51;;;;;;;5.05;3.90;;;10.90;99.90;;;-146.41;100.00;57768.22;5008026;28;20057;-72
2022/05/30 06:34:18;;;;;;;7.50;4.20;;;11.00;99.90;;;-146.41;100.00;57768.22;5004798;28;20050;-72
2022/05/30 06:36:45;;;;;;;7.53;3.58;;;11.00;99.90;;;-146.41;100.00;57768.22;5001070;28;20368;-72
2022/05/30 06:39:14;;;;;;;5.80;2.60;;;11.00;99.90;;;-146.41;100.00;57768.22;5008048;28;20551;-72
2022/05/30 06:41:41;;;;;;;5.82;2.90;;;11.20;99.90;;;-146.41;100.00;57768.22;5003775;28;20646;-72
2022/05/30 06:44:08;;;;;;;7.45;2.97;;;11.40;99.90;;;-146.41;100.00;57768.22;4989556;28;20121;-70
2022/05/30 06:46:37;;;;;;;5.35;2.85;;;11.60;99.90;;;-146.41;100.00;57768.22;5012569;28;20081;-70
2022/05/30 06:49:06;;;;;;;3.70;2.17;;;11.70;99.90;;;-146.41;100.00;57768.22;4999076;28;21917;-70
2022/05/30 06:51:35;;;;;;;5.55;2.53;;;11.60;99.90;;;-146.41;100.00;57768.22;4994424;28;20074;-70
2022/05/30 06:54:05;;;;;;;5.72;2.08;;;11.70;99.90;;;-146.41;100.00;57768.22;4987344;28;20086;-71
2022/05/30 06:56:39;;;;;;;6.93;2.42;;;11.90;99.90;;;-146.41;100.00;57768.22;5004898;28;21192;-71
2022/05/30 06:59:06;;;;;;;7.32;2.00;;;11.80;99.90;;;-146.41;100.00;57768.22;4988134;28;20213;-71
2022/05/30 07:01:34;;;;;;;4.55;2.20;;;11.90;99.90;;;-146.41;100.00;57768.22;5003528;28;20052;-70
2022/05/30 07:04:02;;;;;;;4.95;2.08;;;11.80;99.90;;;-146.41;100.00;57768.22;5000874;28;20057;-71
2022/05/30 07:06:33;;;;;;;5.18;2.15;;;12.00;99.90;;;-146.41;100.00;57768.22;5002153;28;20136;-72
2022/05/30 07:09:04;;;;;;;5.53;1.70;;;12.30;99.90;;;-146.41;100.00;57768.22;5000133;28;21089;-70
2022/05/30 07:11:31;;;;;;;3.92;1.75;;;12.40;99.90;;;-146.41;100.00;57768.22;5003117;28;20061;-71
2022/05/30 07:13:57;;;;;;;4.65;2.00;;;12.50;99.90;;;-146.41;100.00;57768.22;5004893;28;20177;-71
2022/05/30 07:16:25;;;;;;;4.57;2.10;;;;;;;-146.41;100.00;57768.22;5005620;28;20051;-71
2022/05/30 07:18:53;;;;;;;4.95;2.00;;;12.50;99.90;;;-146.41;100.00;57768.22;5008002;28;20157;-71
2022/05/30 07:21:20;;;;;;;5.03;1.45;;;12.60;99.90;;;-146.41;100.00;57768.22;5005559;28;20129;-71
2022/05/30 07:23:49;;;;;;;8.25;1.50;;;;;;;-146.41;100.00;57768.22;4983249;28;20066;-70
2022/05/30 07:26:20;;;;;;;3.45;1.20;;;13.00;99.90;;;-146.41;100.00;57768.22;5002217;28;20133;-70
2022/05/30 07:28:51;;;;;;;4.53;1.10;;;13.00;99.90;;;-146.41;100.00;57768.22;4991203;28;20046;-71
2022/05/30 07:31:20;;;;;;;3.30;1.00;;;13.10;99.90;;;-146.41;100.00;57768.22;4981771;28;20056;-71
2022/05/30 07:33:48;;;;;;;6.72;1.10;;;13.20;99.90;;;-146.41;100.00;57768.22;5006396;28;20998;-71
2022/05/30 07:36:21;;;;;;;2.28;0.82;;;13.30;99.90;;;-146.41;100.00;57768.22;5011466;28;20041;-71
2022/05/30 07:38:50;;;;;;;5.45;1.05;;;13.30;99.90;;;-146.41;100.00;57768.22;5010345;28;20046;-71
2022/05/30 07:41:18;;;;;;;2.72;0.85;;;13.30;99.90;;;-146.41;100.00;57768.22;4987037;28;20070;-71
2022/05/30 07:43:46;;;;;;;2.95;0.73;;;13.20;99.90;;;-146.41;100.00;57768.22;5005483;28;20045;-71
2022/05/30 07:46:17;;;;;;;3.22;1.10;;;13.40;99.90;;;-146.41;100.00;57768.22;5006790;28;20446;-71
2022/05/30 07:48:45;;;;;;;1.77;0.60;;;13.40;99.90;;;-146.41;100.00;57768.22;4989677;28;20045;-72
2022/05/30 07:51:14;;;;;;;2.90;0.80;;;13.60;99.90;;;-146.41;100.00;57768.22;4984994;28;20221;-71
2022/05/30 07:53:43;;;;;;;2.75;0.80;;;13.70;99.90;;;-146.41;100.00;57768.22;5010052;28;20046;-71
2022/05/30 07:56:14;;;;;;;1.85;0.50;;;13.80;99.90;;;-146.41;100.00;57768.22;5011125;28;20104;-71
2022/05/30 07:58:42;;;;;;;3.90;0.80;;;14.00;99.90;;;-146.41;100.00;57768.22;4987685;28;20565;-70
2022/05/30 08:01:20;;;;;;;3.15;1.05;;;14.20;99.90;;;-146.41;100.00;57768.22;5009637;28;20053;-71
2022/05/30 08:03:52;;;;;;;2.45;0.80;;;14.20;99.90;;;-146.41;100.00;57768.22;4990794;28;20069;-72
2022/05/30 08:06:24;;;;;;;6.18;0.88;;;14.20;99.90;;;-146.41;100.00;57768.22;5006974;28;20128;-72
2022/05/30 08:08:52;;;;;;;3.03;0.93;;;14.30;99.90;;;-146.41;100.00;57768.22;4989288;28;20060;-71
2022/05/30 08:11:21;;;;;;;2.13;0.65;;;14.50;99.90;;;-146.41;100.00;57768.22;5006015;28;20304;-71
2022/05/30 08:13:49;;;;;;;2.28;0.60;;;14.90;99.90;;;-146.41;100.00;57768.22;4992554;28;20173;-71
2022/05/30 08:16:22;;;;;;;2.78;0.82;;;15.10;99.90;;;-146.41;100.00;57768.22;5009001;28;20132;-71
2022/05/30 08:19:09;;;;;;;2.45;0.75;;;15.20;99.90;;;-146.41;100.00;57768.22;5010302;28;20058;-71
2022/05/30 08:22:05;;;;;;;1.88;0.75;;;15.40;99.90;;;-146.41;100.00;57768.22;5011461;28;20125;-72
2022/05/30 08:24:47;;;;;;;2.17;0.73;;;15.30;99.90;;;-146.41;100.00;57768.22;4986097;28;20108;-71
2022/05/30 08:27:15;;;;;;;1.95;0.77;;;15.20;99.90;;;-146.41;100.00;57768.22;5002094;28;20050;-71
2022/05/30 08:29:42;;;;;;;3.47;0.90;;;15.60;99.90;;;-146.41;100.00;57768.22;5004334;28;20435;-71
2022/05/30 08:32:10;;;;;;;2.70;0.95;;;15.70;99.90;;;-146.41;100.00;57768.22;5006511;28;20235;-71
2022/05/30 08:34:39;;;;;;;3.35;0.90;;;15.60;99.90;;;-146.41;100.00;57768.22;5004832;28;20125;-71
2022/05/30 08:37:08;;;;;;;2.40;0.80;;;15.50;99.90;;;-146.41;100.00;57768.22;5010630;28;20077;-71
2022/05/30 08:42:31;;;;;;;2.85;0.73;;;15.10;99.90;;;-146.41;100.00;57768.22;5005817;28;20566;-73
2022/05/30 08:44:59;;;;;;;2.28;0.70;;;15.20;99.90;;;-146.41;100.00;57768.22;4987136;28;20045;-71
2022/05/30 08:47:54;;;;;;;3.13;0.70;;;15.40;99.90;;;-146.41;100.00;57768.22;5005466;28;20151;-72
2022/05/30 08:50:48;;;;;;;2.50;0.63;;;15.60;99.90;;;-146.41;100.00;57768.22;5007446;28;20132;-72
2022/05/30 08:53:37;;;;;;;2.05;0.75;;;15.40;99.90;;;-146.41;100.00;57768.22;5008382;28;20089;-71
2022/05/30 08:56:12;;;;;;;3.42;0.77;;;15.70;99.90;;;-146.41;100.00;57768.22;5006151;28;20084;-71
2022/05/30 08:59:04;;;;;;;2.88;0.73;;;15.60;99.90;;;-146.41;100.00;57768.22;5008439;28;20165;-72
2022/05/30 09:02:33;;;;;;;4.20;0.68;;;15.40;99.90;;;-146.41;100.00;57768.22;5007404;28;20137;-72
2022/05/30 09:05:24;;;;;;;3.25;0.80;;;15.40;99.90;;;-146.41;100.00;57768.22;4906882;29;20127;-71
2022/05/30 09:08:22;;;;;;;4.32;1.05;;;15.30;99.90;;;-146.41;100.00;57768.22;4912010;29;20151;-72
2022/05/30 09:10:55;;;;;;;3.28;0.75;;;15.00;99.90;;;-146.41;100.00;57768.22;4987369;28;20136;-72
2022/05/30 09:13:38;;;;;;;1.25;0.70;;;15.10;99.90;;;-146.41;100.00;57768.22;5010177;28;20151;-72
2022/05/30 09:16:30;;;;;;;2.83;0.80;;;15.10;99.90;;;-146.41;100.00;57768.22;4986304;28;20093;-71
2022/05/30 09:19:02;;;;;;;2.67;0.73;;;15.20;99.90;;;-146.41;100.00;57768.22;5003825;28;20127;-72
2022/05/30 09:21:32;;;;;;;2.20;0.70;;;15.30;99.90;;;-146.41;100.00;57768.22;4987716;28;20133;-73
2022/05/30 09:23:59;;;;;;;2.70;0.70;;;15.30;99.90;;;-146.41;100.00;57768.22;4988304;28;20132;-72
2022/05/30 09:26:33;;;;;;;2.90;0.82;;;15.20;99.90;;;-146.41;100.00;57768.22;5007979;28;20536;-72
2022/05/30 09:29:06;;;;;;;1.92;0.70;;;15.20;99.90;;;-146.41;100.00;57768.22;4988902;28;20124;-72
2022/05/30 09:31:36;;;;;;;2.80;0.50;;;15.30;99.90;;;-146.41;100.00;57768.22;5006851;28;20140;-72
2022/05/30 09:34:45;;;;;;;1.50;0.60;;;15.50;99.90;;;-146.41;100.00;57768.22;5007785;28;20115;-72
2022/05/30 09:37:35;;;;;;;2.10;0.60;;;15.70;99.90;;;-146.41;100.00;57768.22;4988144;28;20515;-72
2022/05/30 09:40:02;;;;;;;2.50;0.63;;;15.90;99.90;;;-146.41;100.00;57768.22;5001388;28;20068;-72
2022/05/30 09:42:49;;;;;;;1.60;0.65;;;16.10;99.90;;;-146.41;100.00;57768.22;5006870;28;20137;-72
2022/05/30 09:45:28;;;;;;;1.10;0.50;;;16.30;99.40;;;-146.41;100.00;57768.22;5006539;28;20052;-72
2022/05/30 09:48:15;;;;;;;1.70;0.50;;;16.60;99.80;;;-146.41;100.00;57768.22;5007604;28;20497;-72
2022/05/30 09:50:54;;;;;;;0.85;0.50;;;16.80;98.90;;;-146.41;100.00;57768.22;5000557;28;20081;-71
2022/05/30 09:53:48;;;;;;;0.75;0.40;;;16.80;98.30;;;-146.41;100.00;57768.22;4983761;28;20096;-72
2022/05/30 09:56:19;;;;;;;1.73;0.50;;;17.00;98.60;;;-146.41;100.00;57768.22;5001289;28;20510;-71
2022/05/30 09:59:13;;;;;;;1.70;0.60;;;17.20;99.80;;;-146.41;100.00;57768.22;4988034;28;20042;-71
2022/05/30 10:01:49;;;;;;;2.25;0.55;;;17.30;99.90;;;-146.41;100.00;57768.22;4988958;28;20125;-72
2022/05/30 10:04:41;;;;;;;2.38;0.60;;;17.40;99.90;;;-146.41;100.00;57768.22;4985761;28;20430;-72
2022/05/30 10:07:19;;;;;;;1.77;0.60;;;17.20;99.50;;;-146.41;100.00;57768.22;4982857;28;20546;-72
2022/05/30 10:09:58;;;;;;;2.53;0.73;;;17.60;98.30;;;-146.41;100.00;57768.22;4982546;28;20678;-71
2022/05/30 10:12:38;;;;;;;4.40;0.50;;;18.10;97.40;;;-146.41;100.00;57768.22;5006918;28;20085;-72
2022/05/30 10:15:31;;;;;;;2.47;0.43;;;18.70;95.90;;;-146.41;100.00;57768.22;5007012;28;20077;-71
2022/05/30 10:18:24;;;;;;;2.42;0.50;;;19.20;96.20;;;-146.41;100.00;57768.22;4990205;28;20128;-72
2022/05/30 10:21:14;;;;;;;3.70;0.60;;;19.50;95.70;;;-146.41;100.00;57768.22;4993435;28;20054;-71
2022/05/30 10:30:40;;;;;;;1.63;0.50;;;20.10;93.20;;;-146.41;100.00;57768.22;4984826;28;20463;-72
2022/05/30 10:33:30;;;;;;;1.58;0.47;;;20.70;91.90;;;-146.41;100.00;57768.22;4999772;28;20046;-71
2022/05/30 10:36:15;;;;;;;1.80;0.40;;;21.50;91.00;;;-146.41;100.00;57768.22;4985334;28;20145;-72